sensor_id;sensor_type;location;lat;lon;timestamp;pressure;altitude;pressure_sealevel;temperature;humidity
56719;BME280;42597;40.636;0.278;2023-05-21T00:02:07;96873.59;;;19.04;46.17
56719;BME280;42597;40.636;0.278;2023-05-21T00:04:37;96874.38;;;18.60;45.79
56719;BME280;42597;40.636;0.278;2023-05-21T00:07:08;96875.09;;;19.09;44.67
56719;BME280;42597;40.636;0.278;2023-05-21T00:09:35;96877.63;;;19.57;46.37
56719;BME280;42597;40.636;0.278;2023-05-21T00:12:04;96871.44;;;19.53;45.41
56719;BME280;42597;40.636;0.278;2023-05-21T00:14:30;96866.63;;;19.64;46.12
56719;BME280;42597;40.636;0.278;2023-05-21T00:16:55;96867.72;;;19.70;45.92
56719;BME280;42597;40.636;0.278;2023-05-21T00:19:21;96865.66;;;19.78;45.74
56719;BME280;42597;40.636;0.278;2023-05-21T00:21:47;96865.81;;;19.67;46.15
56719;BME280;42597;40.636;0.278;2023-05-21T00:24:12;96859.13;;;19.68;46.21
56719;BME280;42597;40.636;0.278;2023-05-21T00:26:38;96862.63;;;19.04;46.17
56719;BME280;42597;40.636;0.278;2023-05-21T00:29:04;96860.47;;;19.53;46.38
56719;BME280;42597;40.636;0.278;2023-05-21T00:31:30;96856.00;;;19.36;45.77
56719;BME280;42597;40.636;0.278;2023-05-21T00:33:56;96851.50;;;19.22;46.51
56719;BME280;42597;40.636;0.278;2023-05-21T00:36:22;96858.25;;;18.72;44.41
56719;BME280;42597;40.636;0.278;2023-05-21T00:38:49;96852.28;;;18.85;47.02
56719;BME280;42597;40.636;0.278;2023-05-21T00:41:15;96848.25;;;19.31;45.36
56719;BME280;42597;40.636;0.278;2023-05-21T00:43:42;96851.75;;;18.07;47.65
56719;BME280;42597;40.636;0.278;2023-05-21T00:46:18;96843.41;;;18.73;48.13
56719;BME280;42597;40.636;0.278;2023-05-21T00:48:46;96840.94;;;18.86;47.36
56719;BME280;42597;40.636;0.278;2023-05-21T00:51:13;96833.69;;;19.03;46.60
56719;BME280;42597;40.636;0.278;2023-05-21T00:53:39;96839.09;;;19.41;46.04
56719;BME280;42597;40.636;0.278;2023-05-21T00:56:05;96840.66;;;19.11;44.24
56719;BME280;42597;40.636;0.278;2023-05-21T00:58:32;96829.78;;;19.04;46.37
56719;BME280;42597;40.636;0.278;2023-05-21T01:00:59;96836.72;;;19.12;46.35
56719;BME280;42597;40.636;0.278;2023-05-21T01:03:31;96839.53;;;18.67;47.11
56719;BME280;42597;40.636;0.278;2023-05-21T01:06:07;96832.19;;;18.12;45.66
56719;BME280;42597;40.636;0.278;2023-05-21T01:08:34;96840.25;;;16.72;46.16
56719;BME280;42597;40.636;0.278;2023-05-21T01:11:05;96835.09;;;17.87;49.15
56719;BME280;42597;40.636;0.278;2023-05-21T01:13:32;96821.34;;;18.88;47.79
56719;BME280;42597;40.636;0.278;2023-05-21T01:15:59;96827.09;;;19.31;46.70
56719;BME280;42597;40.636;0.278;2023-05-21T01:18:25;96836.00;;;18.25;46.87
56719;BME280;42597;40.636;0.278;2023-05-21T01:20:51;96826.19;;;18.28;46.38
56719;BME280;42597;40.636;0.278;2023-05-21T01:23:18;96825.91;;;19.02;45.88
56719;BME280;42597;40.636;0.278;2023-05-21T01:25:45;96834.59;;;19.27;46.47
56719;BME280;42597;40.636;0.278;2023-05-21T01:28:12;96820.03;;;19.34;46.20
56719;BME280;42597;40.636;0.278;2023-05-21T01:30:39;96824.06;;;18.91;44.56
56719;BME280;42597;40.636;0.278;2023-05-21T01:35:48;96818.34;;;18.79;43.51
56719;BME280;42597;40.636;0.278;2023-05-21T01:38:32;96818.53;;;19.26;46.68
56719;BME280;42597;40.636;0.278;2023-05-21T01:41:06;96815.53;;;18.41;47.52
56719;BME280;42597;40.636;0.278;2023-05-21T01:43:33;96819.25;;;18.61;45.58
56719;BME280;42597;40.636;0.278;2023-05-21T01:46:01;96818.75;;;18.32;46.58
56719;BME280;42597;40.636;0.278;2023-05-21T01:48:28;96819.59;;;16.86;46.46
56719;BME280;42597;40.636;0.278;2023-05-21T01:50:58;96815.47;;;18.03;45.78
56719;BME280;42597;40.636;0.278;2023-05-21T01:53:24;96813.09;;;17.46;48.26
56719;BME280;42597;40.636;0.278;2023-05-21T01:55:50;96827.44;;;16.23;46.43
56719;BME280;42597;40.636;0.278;2023-05-21T01:58:16;96813.81;;;16.34;48.56
56719;BME280;42597;40.636;0.278;2023-05-21T02:00:43;96817.41;;;18.06;45.82
56719;BME280;42597;40.636;0.278;2023-05-21T02:03:13;96810.16;;;17.85;47.97
56719;BME280;42597;40.636;0.278;2023-05-21T02:05:41;96808.84;;;17.38;46.77
56719;BME280;42597;40.636;0.278;2023-05-21T02:08:07;96807.59;;;17.53;47.14
56719;BME280;42597;40.636;0.278;2023-05-21T02:10:34;96805.72;;;18.02;48.19
56719;BME280;42597;40.636;0.278;2023-05-21T02:12:59;96813.34;;;16.85;45.28
56719;BME280;42597;40.636;0.278;2023-05-21T02:15:25;96818.13;;;16.13;47.01
56719;BME280;42597;40.636;0.278;2023-05-21T02:17:50;96801.66;;;17.65;49.64
56719;BME280;42597;40.636;0.278;2023-05-21T02:20:18;96804.59;;;17.33;44.97
56719;BME280;42597;40.636;0.278;2023-05-21T02:22:45;96807.06;;;17.76;46.45
56719;BME280;42597;40.636;0.278;2023-05-21T02:25:13;96804.63;;;17.19;45.44
56719;BME280;42597;40.636;0.278;2023-05-21T02:27:39;96807.97;;;18.14;48.21
56719;BME280;42597;40.636;0.278;2023-05-21T02:30:10;96813.69;;;18.68;47.29
56719;BME280;42597;40.636;0.278;2023-05-21T02:32:36;96810.16;;;18.34;45.36
56719;BME280;42597;40.636;0.278;2023-05-21T02:35:04;96809.69;;;17.94;47.26
56719;BME280;42597;40.636;0.278;2023-05-21T02:37:30;96820.09;;;18.55;46.32
56719;BME280;42597;40.636;0.278;2023-05-21T02:39:58;96812.16;;;17.70;43.26
56719;BME280;42597;40.636;0.278;2023-05-21T02:42:24;96816.22;;;18.52;48.07
56719;BME280;42597;40.636;0.278;2023-05-21T02:44:51;96819.13;;;18.76;43.82
56719;BME280;42597;40.636;0.278;2023-05-21T02:47:18;96819.81;;;18.87;46.88
56719;BME280;42597;40.636;0.278;2023-05-21T02:49:43;96818.03;;;19.04;46.67
56719;BME280;42597;40.636;0.278;2023-05-21T02:52:09;96822.44;;;18.97;45.15
56719;BME280;42597;40.636;0.278;2023-05-21T02:54:34;96823.84;;;18.75;45.37
56719;BME280;42597;40.636;0.278;2023-05-21T02:57:00;96823.41;;;19.14;46.31
56719;BME280;42597;40.636;0.278;2023-05-21T02:59:25;96823.03;;;19.12;46.23
56719;BME280;42597;40.636;0.278;2023-05-21T03:01:51;96828.34;;;19.27;45.83
56719;BME280;42597;40.636;0.278;2023-05-21T03:04:16;96831.06;;;19.27;45.47
56719;BME280;42597;40.636;0.278;2023-05-21T03:06:42;96834.69;;;18.86;45.70
56719;BME280;42597;40.636;0.278;2023-05-21T03:09:09;96832.13;;;19.06;46.23
56719;BME280;42597;40.636;0.278;2023-05-21T03:11:35;96827.88;;;19.32;45.81
56719;BME280;42597;40.636;0.278;2023-05-21T03:14:01;96841.09;;;19.37;45.41
56719;BME280;42597;40.636;0.278;2023-05-21T03:16:26;96832.63;;;19.28;45.56
56719;BME280;42597;40.636;0.278;2023-05-21T03:18:53;96834.09;;;19.36;45.78
56719;BME280;42597;40.636;0.278;2023-05-21T03:21:18;96830.91;;;19.37;45.31
56719;BME280;42597;40.636;0.278;2023-05-21T03:23:47;96831.72;;;19.38;45.50
56719;BME280;42597;40.636;0.278;2023-05-21T03:26:13;96826.25;;;19.38;45.03
56719;BME280;42597;40.636;0.278;2023-05-21T03:28:39;96821.72;;;18.48;44.91
56719;BME280;42597;40.636;0.278;2023-05-21T03:31:04;96821.06;;;19.13;45.95
56719;BME280;42597;40.636;0.278;2023-05-21T03:33:30;96821.66;;;19.28;45.54
56719;BME280;42597;40.636;0.278;2023-05-21T03:35:56;96817.28;;;19.34;45.70
56719;BME280;42597;40.636;0.278;2023-05-21T03:38:21;96819.31;;;19.30;45.77
56719;BME280;42597;40.636;0.278;2023-05-21T03:40:47;96814.72;;;19.19;45.60
56719;BME280;42597;40.636;0.278;2023-05-21T03:43:13;96814.41;;;19.14;45.73
56719;BME280;42597;40.636;0.278;2023-05-21T03:45:38;96822.81;;;18.96;46.09
56719;BME280;42597;40.636;0.278;2023-05-21T03:48:04;96812.31;;;18.08;45.48
56719;BME280;42597;40.636;0.278;2023-05-21T03:50:29;96806.28;;;19.07;45.96
56719;BME280;42597;40.636;0.278;2023-05-21T03:52:55;96815.47;;;19.23;45.80
56719;BME280;42597;40.636;0.278;2023-05-21T03:55:21;96817.41;;;18.51;45.94
56719;BME280;42597;40.636;0.278;2023-05-21T03:57:46;96811.53;;;19.24;45.70
56719;BME280;42597;40.636;0.278;2023-05-21T04:00:12;96812.41;;;19.18;45.33
56719;BME280;42597;40.636;0.278;2023-05-21T04:02:38;96809.13;;;19.30;45.35
56719;BME280;42597;40.636;0.278;2023-05-21T04:05:03;96817.63;;;18.67;45.16
56719;BME280;42597;40.636;0.278;2023-05-21T04:07:29;96814.03;;;19.12;45.56
56719;BME280;42597;40.636;0.278;2023-05-21T04:09:55;96812.25;;;19.29;45.46
56719;BME280;42597;40.636;0.278;2023-05-21T04:12:20;96817.78;;;19.25;45.24
56719;BME280;42597;40.636;0.278;2023-05-21T04:14:46;96823.22;;;18.12;48.00
56719;BME280;42597;40.636;0.278;2023-05-21T04:17:12;96823.94;;;19.02;45.74
56719;BME280;42597;40.636;0.278;2023-05-21T04:19:38;96820.94;;;19.23;45.39
56719;BME280;42597;40.636;0.278;2023-05-21T04:22:04;96820.47;;;18.98;46.06
56719;BME280;42597;40.636;0.278;2023-05-21T04:24:30;96819.28;;;18.99;45.96
56719;BME280;42597;40.636;0.278;2023-05-21T04:26:55;96817.59;;;18.74;45.95
56719;BME280;42597;40.636;0.278;2023-05-21T04:29:26;96814.72;;;19.19;45.38
56719;BME280;42597;40.636;0.278;2023-05-21T04:31:51;96812.28;;;19.25;45.53
56719;BME280;42597;40.636;0.278;2023-05-21T04:34:17;96807.94;;;18.97;45.47
56719;BME280;42597;40.636;0.278;2023-05-21T04:36:44;96806.78;;;18.98;45.69
56719;BME280;42597;40.636;0.278;2023-05-21T04:39:13;96806.81;;;18.53;45.39
56719;BME280;42597;40.636;0.278;2023-05-21T04:41:39;96805.66;;;18.92;43.82
56719;BME280;42597;40.636;0.278;2023-05-21T04:44:08;96802.81;;;19.03;45.31
56719;BME280;42597;40.636;0.278;2023-05-21T04:46:34;96812.19;;;18.64;44.68
56719;BME280;42597;40.636;0.278;2023-05-21T04:49:03;96805.72;;;18.02;43.31
56719;BME280;42597;40.636;0.278;2023-05-21T04:51:29;96800.31;;;18.40;47.03
56719;BME280;42597;40.636;0.278;2023-05-21T04:53:55;96808.19;;;17.86;46.98
56719;BME280;42597;40.636;0.278;2023-05-21T04:56:22;96807.78;;;18.36;44.67
56719;BME280;42597;40.636;0.278;2023-05-21T04:58:52;96799.59;;;18.32;46.41
56719;BME280;42597;40.636;0.278;2023-05-21T05:01:18;96810.31;;;18.12;45.90
56719;BME280;42597;40.636;0.278;2023-05-21T05:03:46;96808.22;;;17.79;46.80
56719;BME280;42597;40.636;0.278;2023-05-21T05:06:11;96809.91;;;17.55;47.39
56719;BME280;42597;40.636;0.278;2023-05-21T05:08:37;96805.56;;;18.20;46.87
56719;BME280;42597;40.636;0.278;2023-05-21T05:11:02;96819.25;;;18.20;46.89
56719;BME280;42597;40.636;0.278;2023-05-21T05:13:28;96820.94;;;17.37;45.69
56719;BME280;42597;40.636;0.278;2023-05-21T05:15:53;96814.25;;;18.08;47.00
56719;BME280;42597;40.636;0.278;2023-05-21T05:18:19;96824.63;;;17.71;45.08
56719;BME280;42597;40.636;0.278;2023-05-21T05:20:44;96832.41;;;17.84;45.23
56719;BME280;42597;40.636;0.278;2023-05-21T05:23:11;96828.47;;;17.85;44.04
56719;BME280;42597;40.636;0.278;2023-05-21T05:25:36;96830.63;;;18.15;46.93
56719;BME280;42597;40.636;0.278;2023-05-21T05:28:02;96831.28;;;16.83;45.29
56719;BME280;42597;40.636;0.278;2023-05-21T05:30:28;96830.47;;;17.81;46.49
56719;BME280;42597;40.636;0.278;2023-05-21T05:32:53;96834.75;;;17.82;44.15
56719;BME280;42597;40.636;0.278;2023-05-21T05:35:19;96835.34;;;18.07;44.66
56719;BME280;42597;40.636;0.278;2023-05-21T05:37:45;96833.84;;;17.99;44.83
56719;BME280;42597;40.636;0.278;2023-05-21T05:40:10;96831.50;;;18.01;46.74
56719;BME280;42597;40.636;0.278;2023-05-21T05:42:36;96834.63;;;17.99;46.72
56719;BME280;42597;40.636;0.278;2023-05-21T05:45:02;96834.69;;;17.89;45.38
56719;BME280;42597;40.636;0.278;2023-05-21T05:47:27;96839.38;;;17.88;45.68
56719;BME280;42597;40.636;0.278;2023-05-21T05:49:53;96826.75;;;18.09;45.25
56719;BME280;42597;40.636;0.278;2023-05-21T05:52:18;96829.22;;;18.41;46.44
56719;BME280;42597;40.636;0.278;2023-05-21T05:54:44;96834.56;;;18.55;44.90
56719;BME280;42597;40.636;0.278;2023-05-21T05:57:10;96834.19;;;18.94;45.21
56719;BME280;42597;40.636;0.278;2023-05-21T05:59:35;96841.78;;;18.80;45.39
56719;BME280;42597;40.636;0.278;2023-05-21T06:02:01;96830.53;;;18.70;45.86
56719;BME280;42597;40.636;0.278;2023-05-21T06:04:26;96830.22;;;18.99;45.05
56719;BME280;42597;40.636;0.278;2023-05-21T06:06:57;96834.19;;;17.38;43.06
56719;BME280;42597;40.636;0.278;2023-05-21T06:09:24;96833.84;;;18.47;45.30
56719;BME280;42597;40.636;0.278;2023-05-21T06:11:49;96832.00;;;18.37;44.52
56719;BME280;42597;40.636;0.278;2023-05-21T06:14:15;96843.78;;;18.31;43.08
56719;BME280;42597;40.636;0.278;2023-05-21T06:16:41;96820.81;;;18.62;43.24
56719;BME280;42597;40.636;0.278;2023-05-21T06:19:07;96816.44;;;18.72;42.98
56719;BME280;42597;40.636;0.278;2023-05-21T06:21:32;96822.50;;;18.90;44.25
56719;BME280;42597;40.636;0.278;2023-05-21T06:23:58;96828.78;;;19.21;44.77
56719;BME280;42597;40.636;0.278;2023-05-21T06:26:23;96818.25;;;18.86;44.20
56719;BME280;42597;40.636;0.278;2023-05-21T06:28:49;96825.03;;;19.08;44.94
56719;BME280;42597;40.636;0.278;2023-05-21T06:31:15;96819.78;;;18.90;43.98
56719;BME280;42597;40.636;0.278;2023-05-21T06:33:40;96812.06;;;19.12;45.04
56719;BME280;42597;40.636;0.278;2023-05-21T06:36:06;96818.16;;;18.93;45.40
56719;BME280;42597;40.636;0.278;2023-05-21T06:38:32;96810.78;;;19.20;44.39
56719;BME280;42597;40.636;0.278;2023-05-21T06:40:57;96818.19;;;19.23;42.70
56719;BME280;42597;40.636;0.278;2023-05-21T06:43:23;96812.25;;;19.29;43.96
56719;BME280;42597;40.636;0.278;2023-05-21T06:45:49;96806.84;;;19.21;44.52
56719;BME280;42597;40.636;0.278;2023-05-21T06:48:14;96813.91;;;19.22;43.96
56719;BME280;42597;40.636;0.278;2023-05-21T06:50:42;96817.41;;;18.89;41.78
56719;BME280;42597;40.636;0.278;2023-05-21T06:53:07;96811.91;;;18.92;44.34
56719;BME280;42597;40.636;0.278;2023-05-21T06:55:33;96818.38;;;19.40;43.48
56719;BME280;42597;40.636;0.278;2023-05-21T06:57:59;96808.63;;;19.39;44.02
56719;BME280;42597;40.636;0.278;2023-05-21T07:00:24;96816.28;;;19.20;43.35
56719;BME280;42597;40.636;0.278;2023-05-21T07:02:50;96815.63;;;19.09;41.90
56719;BME280;42597;40.636;0.278;2023-05-21T07:05:16;96809.41;;;19.05;43.26
56719;BME280;42597;40.636;0.278;2023-05-21T07:07:41;96810.53;;;19.11;42.58
56719;BME280;42597;40.636;0.278;2023-05-21T07:10:07;96810.53;;;19.42;42.51
56719;BME280;42597;40.636;0.278;2023-05-21T07:12:33;96804.63;;;19.43;42.41
56719;BME280;42597;40.636;0.278;2023-05-21T07:14:58;96808.97;;;19.41;43.50
56719;BME280;42597;40.636;0.278;2023-05-21T07:17:24;96820.75;;;19.38;42.41
56719;BME280;42597;40.636;0.278;2023-05-21T07:19:50;96819.22;;;19.33;42.67
56719;BME280;42597;40.636;0.278;2023-05-21T07:22:15;96827.53;;;18.95;39.94
56719;BME280;42597;40.636;0.278;2023-05-21T07:24:41;96825.44;;;19.07;39.66
56719;BME280;42597;40.636;0.278;2023-05-21T07:27:06;96820.13;;;19.27;40.84
56719;BME280;42597;40.636;0.278;2023-05-21T07:29:32;96821.63;;;19.31;39.80
56719;BME280;42597;40.636;0.278;2023-05-21T07:31:58;96821.59;;;19.35;40.15
56719;BME280;42597;40.636;0.278;2023-05-21T07:34:24;96825.78;;;19.43;38.90
56719;BME280;42597;40.636;0.278;2023-05-21T07:36:50;96817.19;;;19.71;40.22
56719;BME280;42597;40.636;0.278;2023-05-21T07:39:16;96817.44;;;19.81;40.55
56719;BME280;42597;40.636;0.278;2023-05-21T07:41:42;96814.06;;;19.69;38.62
56719;BME280;42597;40.636;0.278;2023-05-21T07:44:07;96819.50;;;19.73;40.85
56719;BME280;42597;40.636;0.278;2023-05-21T07:46:33;96815.78;;;19.87;39.55
56719;BME280;42597;40.636;0.278;2023-05-21T07:48:58;96814.50;;;19.95;39.86
56719;BME280;42597;40.636;0.278;2023-05-21T07:51:24;96813.16;;;19.80;38.13
56719;BME280;42597;40.636;0.278;2023-05-21T07:53:51;96816.72;;;20.04;40.56
56719;BME280;42597;40.636;0.278;2023-05-21T07:56:16;96813.44;;;20.12;38.31
56719;BME280;42597;40.636;0.278;2023-05-21T07:58:42;96814.75;;;20.28;37.80
56719;BME280;42597;40.636;0.278;2023-05-21T08:01:10;96821.84;;;20.25;37.94
56719;BME280;42597;40.636;0.278;2023-05-21T08:03:36;96822.84;;;20.11;38.30
56719;BME280;42597;40.636;0.278;2023-05-21T08:06:02;96819.97;;;19.95;36.34
56719;BME280;42597;40.636;0.278;2023-05-21T08:08:27;96819.28;;;20.14;37.14
56719;BME280;42597;40.636;0.278;2023-05-21T08:10:53;96816.19;;;20.36;36.33
56719;BME280;42597;40.636;0.278;2023-05-21T08:13:19;96816.97;;;20.36;36.72
56719;BME280;42597;40.636;0.278;2023-05-21T08:15:44;96818.44;;;20.41;35.47
56719;BME280;42597;40.636;0.278;2023-05-21T08:18:10;96819.22;;;20.41;37.83
56719;BME280;42597;40.636;0.278;2023-05-21T08:20:36;96819.53;;;20.47;38.54
56719;BME280;42597;40.636;0.278;2023-05-21T08:23:01;96819.91;;;20.49;38.25
56719;BME280;42597;40.636;0.278;2023-05-21T08:25:28;96817.69;;;20.64;38.40
56719;BME280;42597;40.636;0.278;2023-05-21T08:27:54;96823.31;;;20.77;37.74
56719;BME280;42597;40.636;0.278;2023-05-21T08:30:20;96814.88;;;20.44;38.20
56719;BME280;42597;40.636;0.278;2023-05-21T08:32:47;96807.94;;;20.83;38.43
56719;BME280;42597;40.636;0.278;2023-05-21T08:35:12;96812.22;;;20.84;37.77
56719;BME280;42597;40.636;0.278;2023-05-21T08:37:38;96813.50;;;20.99;36.74
56719;BME280;42597;40.636;0.278;2023-05-21T08:40:04;96810.59;;;21.06;36.87
56719;BME280;42597;40.636;0.278;2023-05-21T08:42:45;96815.03;;;21.00;37.11
56719;BME280;42597;40.636;0.278;2023-05-21T08:45:12;96810.19;;;21.08;37.22
56719;BME280;42597;40.636;0.278;2023-05-21T08:47:40;96808.63;;;21.07;36.45
56719;BME280;42597;40.636;0.278;2023-05-21T08:50:09;96806.34;;;21.22;37.29
56719;BME280;42597;40.636;0.278;2023-05-21T08:52:35;96800.88;;;21.22;36.78
56719;BME280;42597;40.636;0.278;2023-05-21T08:55:02;96805.97;;;21.43;37.61
56719;BME280;42597;40.636;0.278;2023-05-21T08:57:29;96806.50;;;21.34;36.41
56719;BME280;42597;40.636;0.278;2023-05-21T08:59:56;96813.34;;;21.46;36.00
56719;BME280;42597;40.636;0.278;2023-05-21T09:02:21;96802.56;;;21.55;36.13
56719;BME280;42597;40.636;0.278;2023-05-21T09:04:49;96809.59;;;21.56;35.92
56719;BME280;42597;40.636;0.278;2023-05-21T09:07:15;96802.78;;;21.44;35.42
56719;BME280;42597;40.636;0.278;2023-05-21T09:09:49;96811.38;;;21.27;35.82
56719;BME280;42597;40.636;0.278;2023-05-21T09:12:17;96804.28;;;21.65;36.09
56719;BME280;42597;40.636;0.278;2023-05-21T09:14:43;96806.22;;;21.49;34.91
56719;BME280;42597;40.636;0.278;2023-05-21T09:17:14;96807.06;;;21.46;35.49
56719;BME280;42597;40.636;0.278;2023-05-21T09:22:48;96803.97;;;21.80;35.35
56719;BME280;42597;40.636;0.278;2023-05-21T09:25:15;96809.22;;;21.54;35.49
56719;BME280;42597;40.636;0.278;2023-05-21T09:27:41;96807.56;;;21.93;34.90
56719;BME280;42597;40.636;0.278;2023-05-21T09:30:12;96806.03;;;21.92;35.27
56719;BME280;42597;40.636;0.278;2023-05-21T09:32:38;96800.38;;;21.99;35.17
56719;BME280;42597;40.636;0.278;2023-05-21T09:35:12;96808.69;;;21.79;35.52
56719;BME280;42597;40.636;0.278;2023-05-21T09:37:46;96804.69;;;22.16;35.33
56719;BME280;42597;40.636;0.278;2023-05-21T09:40:15;96811.47;;;21.96;34.94
56719;BME280;42597;40.636;0.278;2023-05-21T09:42:48;96806.56;;;22.03;35.50
56719;BME280;42597;40.636;0.278;2023-05-21T09:45:18;96802.34;;;22.15;35.04
56719;BME280;42597;40.636;0.278;2023-05-21T09:47:45;96807.97;;;22.28;34.95
56719;BME280;42597;40.636;0.278;2023-05-21T09:50:21;96802.28;;;22.18;34.61
56719;BME280;42597;40.636;0.278;2023-05-21T09:52:47;96811.09;;;22.42;33.43
56719;BME280;42597;40.636;0.278;2023-05-21T09:55:15;96799.50;;;22.35;34.31
56719;BME280;42597;40.636;0.278;2023-05-21T09:57:41;96807.25;;;22.40;34.89
56719;BME280;42597;40.636;0.278;2023-05-21T10:00:09;96804.31;;;22.31;34.16
56719;BME280;42597;40.636;0.278;2023-05-21T10:02:43;96813.44;;;22.44;34.32
56719;BME280;42597;40.636;0.278;2023-05-21T10:05:15;96818.44;;;22.16;34.59
56719;BME280;42597;40.636;0.278;2023-05-21T10:07:51;96818.59;;;22.42;33.94
56719;BME280;42597;40.636;0.278;2023-05-21T10:10:21;96810.69;;;22.44;34.07
56719;BME280;42597;40.636;0.278;2023-05-21T10:13:04;96816.88;;;22.48;33.60
56719;BME280;42597;40.636;0.278;2023-05-21T10:15:50;96814.63;;;22.59;34.06
56719;BME280;42597;40.636;0.278;2023-05-21T10:18:17;96812.75;;;22.40;33.70
56719;BME280;42597;40.636;0.278;2023-05-21T10:20:45;96806.03;;;22.57;34.10
56719;BME280;42597;40.636;0.278;2023-05-21T10:23:11;96807.50;;;22.75;33.61
56719;BME280;42597;40.636;0.278;2023-05-21T10:25:37;96818.00;;;22.34;33.38
56719;BME280;42597;40.636;0.278;2023-05-21T10:28:05;96811.19;;;22.39;34.15
56719;BME280;42597;40.636;0.278;2023-05-21T10:30:31;96813.06;;;22.58;33.23
56719;BME280;42597;40.636;0.278;2023-05-21T10:32:58;96808.59;;;22.64;33.50
56719;BME280;42597;40.636;0.278;2023-05-21T10:35:26;96816.34;;;22.53;33.32
56719;BME280;42597;40.636;0.278;2023-05-21T10:37:53;96809.13;;;22.43;33.08
56719;BME280;42597;40.636;0.278;2023-05-21T10:40:18;96816.44;;;22.50;34.01
56719;BME280;42597;40.636;0.278;2023-05-21T10:46:00;96819.25;;;22.62;33.19
56719;BME280;42597;40.636;0.278;2023-05-21T10:48:43;96814.13;;;22.48;32.69
56719;BME280;42597;40.636;0.278;2023-05-21T10:56:51;96795.31;;;22.76;33.07
56719;BME280;42597;40.636;0.278;2023-05-21T10:59:41;96806.78;;;22.58;34.14
56719;BME280;42597;40.636;0.278;2023-05-21T11:02:08;96800.38;;;21.99;36.33
56719;BME280;42597;40.636;0.278;2023-05-21T11:04:35;96789.59;;;22.54;35.71
56719;BME280;42597;40.636;0.278;2023-05-21T11:07:04;96784.91;;;22.22;36.41
56719;BME280;42597;40.636;0.278;2023-05-21T11:09:30;96789.69;;;22.50;36.80
56719;BME280;42597;40.636;0.278;2023-05-21T11:11:57;96791.66;;;22.50;36.40
56719;BME280;42597;40.636;0.278;2023-05-21T11:14:28;96795.63;;;22.49;36.73
56719;BME280;42597;40.636;0.278;2023-05-21T11:16:57;96790.91;;;22.78;37.32
56719;BME280;42597;40.636;0.278;2023-05-21T11:19:33;96804.84;;;22.42;36.41
56719;BME280;42597;40.636;0.278;2023-05-21T11:21:59;96801.88;;;22.65;36.54
56719;BME280;42597;40.636;0.278;2023-05-21T11:24:25;96798.81;;;22.93;36.31
56719;BME280;42597;40.636;0.278;2023-05-21T11:29:42;96797.91;;;22.66;36.30
56719;BME280;42597;40.636;0.278;2023-05-21T11:32:10;96790.34;;;22.83;35.89
56719;BME280;42597;40.636;0.278;2023-05-21T11:34:46;96787.19;;;22.85;35.91
56719;BME280;42597;40.636;0.278;2023-05-21T11:39:57;96794.78;;;22.52;35.82
56719;BME280;42597;40.636;0.278;2023-05-21T11:42:31;96800.53;;;22.41;36.62
56719;BME280;42597;40.636;0.278;2023-05-21T11:44:57;96793.06;;;22.71;36.14
56719;BME280;42597;40.636;0.278;2023-05-21T11:47:24;96796.50;;;22.75;36.23
56719;BME280;42597;40.636;0.278;2023-05-21T11:49:50;96788.25;;;22.75;36.57
56719;BME280;42597;40.636;0.278;2023-05-21T11:52:16;96794.41;;;22.79;36.44
56719;BME280;42597;40.636;0.278;2023-05-21T11:54:49;96790.94;;;22.62;36.66
56719;BME280;42597;40.636;0.278;2023-05-21T11:57:16;96793.50;;;22.24;38.12
56719;BME280;42597;40.636;0.278;2023-05-21T11:59:47;96790.47;;;22.96;36.41
56719;BME280;42597;40.636;0.278;2023-05-21T12:02:17;96789.28;;;23.10;36.48
56719;BME280;42597;40.636;0.278;2023-05-21T12:04:47;96793.81;;;22.09;36.44
56719;BME280;42597;40.636;0.278;2023-05-21T12:07:14;96786.94;;;22.34;36.53
56719;BME280;42597;40.636;0.278;2023-05-21T12:09:45;96795.34;;;22.43;36.54
56719;BME280;42597;40.636;0.278;2023-05-21T12:12:13;96795.22;;;22.17;36.79
56719;BME280;42597;40.636;0.278;2023-05-21T12:14:43;96786.41;;;22.55;36.78
56719;BME280;42597;40.636;0.278;2023-05-21T12:17:09;96782.97;;;22.35;36.49
56719;BME280;42597;40.636;0.278;2023-05-21T12:19:37;96790.53;;;22.63;36.99
56719;BME280;42597;40.636;0.278;2023-05-21T12:22:04;96777.13;;;22.49;37.05
56719;BME280;42597;40.636;0.278;2023-05-21T12:24:30;96776.25;;;22.52;36.81
56719;BME280;42597;40.636;0.278;2023-05-21T12:26:57;96773.66;;;22.61;37.06
56719;BME280;42597;40.636;0.278;2023-05-21T12:29:30;96775.44;;;22.68;36.85
56719;BME280;42597;40.636;0.278;2023-05-21T12:32:00;96783.41;;;22.79;36.98
56719;BME280;42597;40.636;0.278;2023-05-21T12:34:49;96791.59;;;22.37;37.38
56719;BME280;42597;40.636;0.278;2023-05-21T12:37:20;96787.88;;;22.60;36.79
56719;BME280;42597;40.636;0.278;2023-05-21T12:39:53;96786.75;;;22.57;38.03
56719;BME280;42597;40.636;0.278;2023-05-21T12:42:29;96793.47;;;22.56;37.53
56719;BME280;42597;40.636;0.278;2023-05-21T12:44:55;96783.22;;;22.86;37.67
56719;BME280;42597;40.636;0.278;2023-05-21T12:47:26;96794.19;;;22.28;38.20
56719;BME280;42597;40.636;0.278;2023-05-21T12:50:03;96768.22;;;22.29;38.57
56719;BME280;42597;40.636;0.278;2023-05-21T12:52:32;96790.34;;;22.54;38.66
56719;BME280;42597;40.636;0.278;2023-05-21T12:54:58;96790.75;;;22.40;38.84
56719;BME280;42597;40.636;0.278;2023-05-21T12:57:34;96779.78;;;22.53;38.90
56719;BME280;42597;40.636;0.278;2023-05-21T13:00:00;96785.72;;;22.51;38.92
56719;BME280;42597;40.636;0.278;2023-05-21T13:02:32;96780.50;;;22.40;38.42
56719;BME280;42597;40.636;0.278;2023-05-21T13:05:02;96777.56;;;22.77;38.97
56719;BME280;42597;40.636;0.278;2023-05-21T13:07:30;96773.28;;;22.76;38.21
56719;BME280;42597;40.636;0.278;2023-05-21T13:09:56;96772.03;;;22.64;39.06
56719;BME280;42597;40.636;0.278;2023-05-21T13:12:25;96789.00;;;22.46;40.05
56719;BME280;42597;40.636;0.278;2023-05-21T13:14:51;96784.81;;;22.71;39.01
56719;BME280;42597;40.636;0.278;2023-05-21T13:17:18;96785.56;;;22.71;39.08
56719;BME280;42597;40.636;0.278;2023-05-21T13:22:30;96786.41;;;22.55;38.84
56719;BME280;42597;40.636;0.278;2023-05-21T13:24:56;96784.22;;;22.17;39.11